Caner Celik

Olheiro-Chefe - Galatasaray
4 Dez 2028
Segunda-feira
Processo

Personalidade

Adaptabilidade (6) Ambição (9) Controvérsia (5) Lealdade (13) Pressão (16) Profissionalismo (10) Espírito Esportivo (3) Temperamento (10)

Perfil

Estilo de Treinamento Democrático
Licença Continental A
Determinação 9
Gestão de Pessoas 14
Motivação 16
Disciplina 12
Satisfação no Trabalho
100%
Fadiga
0%
Função Olheiro-Chefe
Salário 61.8K p/s
Contrato 14.03.2030

Desempenho

Comportamento Bom
Eficácia do Treinamento
65%
Desenvolvimento do Jogador
55%
Prevenção de Lesões
80%
Implementação Tática
80%

Eventos Recentes

Recomendou um alvo de transferência agora
Recomendou um alvo de transferência agora
Recomendou um alvo de transferência agora
Participou de uma reunião de recrutamento agora
Recomendou um alvo de transferência agora
Recomendou um alvo de transferência agora
Avaliou um jogador agora
Avaliou um jogador agora

Monitorando agora

187
Jogador Clube Status Habilidade Confiança Observado Última observação Último voto
Leo Román Deportivo La Coruña Ativo 161 / 152 40% 14 03.12.2028 -
Andriy Lunin Sevilla Ativo 164 / 161 40% 19 03.12.2028 -
Unai Simón Athletic Bilbao Ativo 164 / 169 40% 25 03.12.2028 -
Filip Jörgensen Chelsea Ativo 165 / 165 40% 24 02.12.2028 -
Alex Meret Napoli Ativo 158 / 161 40% 22 02.12.2028 -
Aaron Ramsdale Southampton Ativo 163 / 153 40% 17 01.12.2028 -
Joseph Leclercq Tottenham Ativo 166 / 167 40% 30 01.12.2028 -
James Trafford Leeds United Ativo 154 / 162 40% 16 29.11.2028 -
Carl Rushworth Aston Villa Ativo 161 / 156 40% 15 29.11.2028 -
Giorgi Mamardashvili Liverpool Ativo 166 / 177 40% 36 26.11.2028 -
Kostantis Tzolakis Brighton Ativo 156 / 162 40% 15 26.11.2028 -
Dean Henderson Crystal Palace Ativo 161 / 159 40% 17 24.11.2028 -
Robin Risser Monaco Ativo 157 / 153 40% 20 24.11.2028 -
Mile Svilar AS Roma Ativo 165 / 169 40% 34 21.11.2028 -
Caoimhin Kelleher Brentford Ativo 160 / 154 40% 28 18.11.2028 -
Matvey Safonov Paris Saint-Germain Ativo 156 / 157 40% 31 18.11.2028 -
Robert Sánchez Newcastle United Ativo 166 / 163 40% 15 18.11.2028 -
Senne Lammens Manchester United Ativo 167 / 166 40% 24 17.11.2028 -
Bariş Kalaycı Fatih Karagumruk Ativo 116 / 119 56% 2 / 2m 15.11.2028 -
Ali Turap Bülbül Fatih Karagumruk Ativo 113 / 116 30% 1 / 1m 15.11.2028 -
Lucas Chevalier AC Milan Ativo 162 / 170 40% 25 12.11.2028 -
Anatolii Trubin Arsenal Ativo 159 / 167 40% 24 11.11.2028 -
Gianluigi Donnarumma AS Roma Ativo 174 / 178 40% 32 11.11.2028 -
Antonín Kinský Tottenham Ativo 159 / 157 40% 7 24.10.2028 -
Rodri Barcelona Perdido 177 / 173 40% 3 25.08.2028 -
Carlos Baleba Norwich City Ativo 158 / 161 40% 1 25.08.2028 -
Wesley Fofana Chelsea Ativo 176 / 165 40% 1 25.08.2028 -
Jan Paul van Hecke Tottenham Ativo 165 / 164 40% 4 23.08.2028 -
Cristian Romero Atlético Madrid Ativo 164 / 171 40% 1 23.08.2028 -
Jules Koundé Barcelona Ativo 169 / 162 40% 1 23.08.2028 -
Omar El Hilali Espanyol Ativo 164 / 156 40% 1 16.08.2028 -
Natan Betis Ativo 162 / 152 40% 1 16.08.2028 -
Federico Valverde Real Madrid Ativo 184 / 178 40% 1 05.08.2028 -
Manu Koné AS Roma Ativo 177 / 167 40% 2 31.07.2028 -
Matteo Ruggeri Middlesbrough Ativo 162 / 162 40% 1 31.07.2028 -
Jurriën Timber Arsenal Ativo 172 / 169 40% 1 31.07.2028 -
Noussair Mazraoui Manchester United Ativo 164 / 150 40% 3 26.07.2028 -
Tino Livramento Newcastle United Ativo 172 / 159 40% 12 26.07.2028 -
Youri Tielemans Manchester United Ativo 170 / 159 40% 1 26.07.2028 -
Lucas Ocampos Basaksehir Relatório pronto 150 / 156 83% 1 17.07.2028 -
Ianis Hagi Alanyaspor Ativo 129 / 138 83% 1 03.07.2028 Aprovar
Ernest Muçi Trabzonspor Relatório pronto 140 / 140 79% 1 19.06.2028 Aprovar
Michele Di Gregorio Juventus Ativo 150 / 154 40% 8 15.06.2028 -
Hugo Ekitiké Liverpool Ativo 164 / 167 40% 1 01.06.2028 -
Erling Haaland Barcelona Ativo 187 / 189 40% 1 01.06.2028 -
Bradley Barcola Liverpool Ativo 165 / 157 40% 1 31.05.2028 -
Sven Botman Newcastle United Ativo 162 / 166 40% 1 31.05.2028 -
Riccardo Calafiori Burnley Ativo 170 / 154 40% 1 31.05.2028 -
Piero Hincapié Arsenal Ativo 161 / 155 40% 1 31.05.2028 -
Bart Verbruggen Liverpool Ativo 166 / 168 40% 11 27.05.2028 -
Đorđe Petrović Olympique de Marseille Ativo 148 / 161 40% 10 27.05.2028 -
Lukáš Horníček Burnley Ativo 153 / 147 40% 6 27.05.2028 -
Elia Caprile Cagliari Ativo 159 / 146 40% 9 25.05.2028 -
Julen Agirrezabala Real Sociedad Ativo 150 / 153 40% 6 24.05.2028 -
Robin Roefs Sunderland Ativo 151 / 148 40% 11 22.05.2028 -
Vanja Milinković-Savić Atalanta Ativo 155 / 158 40% 10 19.05.2028 -
Antonio Sivera Alavés Ativo 144 / 151 40% 4 27.04.2028 -
Jonas Urbig Bayern Munich Ativo 154 / 160 40% 6 22.04.2028 -
Luiz Júnior Villarreal Ativo 151 / 146 40% 3 09.04.2028 -
André Onana Manchester United Ativo 144 / 157 40% 3 19.02.2028 -
Zion Suzuki Aston Villa Ativo 144 / 149 40% 1 21.01.2028 -
Bertuğ Yıldırım Basaksehir Ativo 123 / 121 76% 1 17.01.2028 Aprovar
Adam Wharton Crystal Palace Ativo 158 / 154 40% 8 01.01.2028 -
Mao Hosoya Santos Ativo 134 / 135 90% 1 01.01.2028 Aprovar
Gabriel Arsenal Ativo 174 / 180 40% 1 01.01.2028 -
Antoine Semenyo Manchester City Ativo 171 / 153 40% 1 31.12.2027 -
Fabián Manchester United Ativo 169 / 161 40% 1 27.07.2027 -
Riccardo Orsolini Bologna Ativo 159 / 163 40% 1 27.07.2027 -
Mikel Merino Manchester United Ativo 150 / 159 40% 1 30.06.2027 -
Trevoh Chalobah Como Ativo 153 / 154 40% 1 30.06.2027 -
Marc Cucurella Real Madrid Ativo 149 / 153 40% 1 30.06.2027 -
Pedro Porro Tottenham Ativo 153 / 148 40% 3 14.06.2027 -
Cody Gakpo Liverpool Ativo 154 / 146 40% 1 31.05.2027 -
Morgan Rogers Chelsea Ativo 155 / 149 40% 1 31.05.2027 -
Alex Scott Bournemouth Ativo 146 / 147 40% 9 30.05.2027 -
Bosun Lawal Stoke City Ativo 124 / 140 40% 5 30.05.2027 -
Lewis Hall Newcastle United Ativo 156 / 160 40% 12 29.05.2027 -
Habib Diarra Sunderland Ativo 136 / 140 40% 9 29.05.2027 -
Ronnie Edwards Queens Park Rangers Ativo 133 / 141 40% 4 27.05.2027 -
Festy Ebosele Basaksehir Ativo 127 / 137 40% 7 27.05.2027 Observar
Shea Charles Southampton Ativo 141 / 126 40% 6 26.05.2027 -
Jarrad Branthwaite Everton Ativo 154 / 147 40% 8 25.05.2027 -
Brooke Norton-Cuffy Hull City Ativo 133 / 136 40% 4 25.05.2027 -
Kobbie Mainoo Manchester United Ativo 151 / 168 40% 2 25.05.2027 -
Alfie Gilchrist West Bromwich Albion Ativo 127 / 126 40% 2 23.05.2027 -
Elliot Anderson Manchester City Ativo 149 / 157 40% 7 20.05.2027 -
Juanlu Bournemouth Ativo 147 / 162 40% 10 20.05.2027 -
Sidny Lopes Cabral Trabzonspor Ativo 141 / 129 40% 6 19.05.2027 -
Aaron Hickey Brentford Ativo 150 / 134 40% 9 19.05.2027 -
Ousmane Diomande Nottingham Forest Ativo 148 / 158 40% 9 18.05.2027 -
Ben Nelson Leicester City Ativo 141 / 145 40% 1 18.05.2027 -
Nico O'Reilly Manchester City Ativo 150 / 154 40% 4 16.05.2027 -
Wagner Pina Trabzonspor Ativo 127 / 133 40% 5 15.05.2027 -
Max Johnston Derby County Ativo 130 / 133 40% 10 09.05.2027 -
Michael Kayode Brentford Ativo 144 / 162 40% 3 03.05.2027 -
Jacques Ekomié Wrexham Ativo 123 / 118 40% 3 27.04.2027 -
Diego Gómez Brighton Ativo 151 / 137 40% 1 20.04.2027 -
Kristoffer Lund Birmingham Ativo 126 / 116 40% 4 31.03.2027 -
Dennis Cirkin Queens Park Rangers Ativo 122 / 133 40% 5 27.03.2027 -
Toby Collyer West Bromwich Albion Ativo 130 / 129 40% 3 27.03.2027 -
Adis Jašić Zamalek Ativo 130 / 121 40% 1 13.03.2027 -
Gabriel Martinelli Arsenal Ativo 160 / 148 40% 1 25.01.2027 -
Lorent Tolaj Plymouth Argyle Ativo 114 / 127 40% 1 25.01.2027 -
Levi Colwill Chelsea Ativo 163 / 173 40% 1 21.01.2027 -
Moisés Caicedo Chelsea Ativo 164 / 160 40% 1 18.01.2027 -
Yehor Yarmoliuk Brentford Ativo 145 / 140 40% 4 16.01.2027 -
Ian Maatsen Aston Villa Ativo 151 / 150 40% 1 16.01.2027 -
Nordi Mukiele Sunderland Ativo 150 / 157 40% 5 01.01.2027 -
Stanislav Agkatsev Brentford Ativo 132 / 133 66% 1 01.01.2027 Aprovar
Marvin Keller Chelsea Ativo 136 / 137 67% 1 01.01.2027 Aprovar
Xaver Schlager Nottingham Forest Ativo 154 / 140 40% 1 01.01.2027 -
Thiago Brentford Ativo 155 / 154 40% 2 31.12.2026 -
Radek Vítek Middlesbrough Ativo 136 / 138 40% 2 30.12.2026 -
Ryan Sessegnon Fulham Ativo 144 / 131 40% 1 30.12.2026 -
Kenny Tete Fulham Ativo 149 / 141 40% 3 29.12.2026 -
Hidemasa Morita Hull City Ativo 134 / 130 40% 3 28.12.2026 -
Joe Gelhardt Hull City Ativo 124 / 143 40% 3 28.12.2026 -
Lukas Jensen Millwall Ativo 124 / 128 40% 1 25.12.2026 -
Quinten Timber Crystal Palace Ativo 145 / 147 40% 3 20.12.2026 -
Andrew Robertson Tottenham Ativo 156 / 152 40% 3 20.12.2026 -
Mats Wieffer Brighton Ativo 140 / 152 40% 3 18.12.2026 -
Grégoire Coudert Burnley Ativo 137 / 140 40% 1 18.12.2026 -
Jackson Muleka Konyaspor Ativo 131 / 118 40% 3 16.12.2026 -
Kirill Glebov CSKA Moscow Ativo 134 / 136 40% 1 15.12.2026 -
Mathys Tel Tottenham Ativo 150 / 153 40% 1 15.12.2026 -
Robert FC Copenhagen Ativo 126 / 126 40% 1 15.12.2026 -
Leon Goretzka Aston Villa Ativo 151 / 159 40% 3 11.12.2026 -
Ilyas Ansah Hull City Ativo 129 / 142 40% 1 11.12.2026 -
Georginio Rutter Brighton Ativo 141 / 159 40% 1 10.12.2026 -
Anthony Patterson Wrexham Ativo 128 / 139 40% 1 08.12.2026 -
James Garner Everton Ativo 146 / 159 40% 3 03.12.2026 -
Mohamadou Kanté Crawley Town Ativo 114 / 124 40% 1 01.12.2026 -
Nathan Collins Brentford Ativo 149 / 152 40% 2 26.11.2026 -
Tyrese Campbell Sheffield United Ativo 125 / 135 40% 1 25.11.2026 -
Alexis Mac Allister Liverpool Ativo 165 / 158 40% 1 20.11.2026 -
Justo Giani Umraniyespor Ativo 118 / 110 40% 1 16.11.2026 -
Florentino Luís Ipswich Town Ativo 131 / 152 40% 1 14.11.2026 -
Benjamin White Arsenal Ativo 149 / 156 40% 1 13.11.2026 -
Maxence Lacroix Chelsea Ativo 149 / 153 40% 1 12.11.2026 -
Matty Cash Aston Villa Ativo 163 / 144 40% 1 11.11.2026 -
Olivier Boscagli Brighton Ativo 153 / 149 40% 1 11.11.2026 -
Matthijs de Ligt Manchester United Ativo 169 / 172 40% 1 09.11.2026 -
Pervis Estupiñán AC Milan Ativo 140 / 133 40% 1 05.11.2026 -
Etiosa Ighodaro Kaizer Chiefs Ativo 114 / 108 40% 1 05.11.2026 -
Tomoki Hayakawa Kashima Antlers Ativo 135 / 126 40% 2 03.11.2026 -
Anthony Racioppi Sion Ativo 129 / 114 40% 1 03.11.2026 -
Kazuki Fujita Avispa Fukuoka Ativo 132 / 122 40% 2 02.11.2026 -
Yves Bissouma Tottenham Ativo 142 / 149 40% 6 31.10.2026 -
Azzedine Ounahi Panathinaikos Ativo 145 / 140 40% 2 31.10.2026 -
Fiete Arp OB Ativo 133 / 128 40% 1 31.10.2026 -
Daniel Karlsbakk Sarpsborg 08 Ativo 124 / 121 40% 2 30.10.2026 -
Théo Hernández CSKA Moscow Ativo 153 / 140 40% 3 25.10.2026 -
João Cancelo Spartak Moscow Ativo 147 / 163 40% 4 25.10.2026 -
Edu Expósito Espanyol Ativo 131 / 141 40% 6 25.10.2026 -
Otávio Spartak Moscow Ativo 147 / 130 40% 1 24.10.2026 -
Deniz Ertaş Konyaspor Ativo 115 / 128 40% 1 23.10.2026 -
Mads Hedenstad AGF Ativo 113 / 119 40% 1 23.10.2026 -
Diego Enríquez Sporting Cristal Ativo 121 / 116 40% 1 22.10.2026 -
Abduvohid Ne'matov Nasaf Ativo 129 / 129 40% 1 22.10.2026 -
Matevž Vidovšek Olimpija Ljubljana Ativo 121 / 107 40% 1 22.10.2026 -
Justin Hammel Grasshopper Ativo 114 / 107 40% 2 18.10.2026 -
Themba Dala Black Aces Ativo 106 / 103 40% 1 18.10.2026 -
Oufa Shobeir MC Alger Ativo 124 / 119 40% 1 18.10.2026 -
Roger Ibañez Al-Ahli Ativo 147 / 153 40% 4 15.10.2026 -
Kévin Denkey FC Cincinnati Ativo 130 / 126 40% 1 11.10.2026 -
Rasmus Kristensen FC Midtjylland Ativo 150 / 129 40% 6 09.10.2026 -
Dejan Joveljić Seattle Sounders Ativo 130 / 113 40% 2 09.10.2026 -
Josh Sargent Toronto FC Ativo 129 / 139 40% 1 09.10.2026 -
Juan David Cabal Juventus Ativo 135 / 127 40% 2 07.10.2026 -
Ramiro Ruiz Rodríguez Atlético Tucumán Ativo 120 / 126 40% 3 02.10.2026 -
Keisuke Osako Sanfrecce Hiroshima Ativo 147 / 124 40% 1 29.09.2026 -
Martín Ojeda Orlando City Ativo 140 / 134 40% 2 27.09.2026 -
Ferland Mendy Real Madrid Ativo 134 / 143 40% 2 27.09.2026 -
Kelvin Yeboah Minnesota United FC Ativo 116 / 131 40% 2 27.09.2026 -
Wendel Zenit Ativo 132 / 133 40% 3 25.09.2026 -
Cheikh Sabaly Vancouver Whitecaps Ativo 129 / 123 40% 1 19.09.2026 -
Bénie Traoré New York City Ativo 126 / 132 40% 1 19.09.2026 -
Fabinho Trabzonspor Ativo 139 / 150 40% 2 16.09.2026 -
Wessam Abou Ali Columbus Crew Ativo 130 / 144 40% 1 10.09.2026 -
Leonardo Campana New England Revolution Ativo 134 / 133 40% 1 10.09.2026 -
Alexander Aravena Portland Timbers Ativo 117 / 111 40% 1 10.09.2026 -
Jesus Ferreira Seattle Sounders Ativo 129 / 137 40% 1 09.09.2026 -
Jhon Jhon Zenit Ativo 130 / 147 40% 1 29.08.2026 -
Gabriel Pirani San Diego Football Club Ativo 125 / 129 40% 2 27.08.2026 -
Ollie Watkins Al-Hilal Ativo 154 / 153 40% 1 24.08.2026 -
Riku Yamane Yokohama F. Marinos Ativo 120 / 130 40% 1 09.08.2026 -
Crysencio Summerville Al-Hilal Ativo 131 / 140 40% 1 06.08.2026 -